Terminal Aerodrome Forecast
Issued by NWS Bismarck, ND

Home | Current Version | Previous Version | Graphics & Text | Print | Product List | Glossary On
Versions: 1 2 3 4 5 6 7 8 9 10 11 12 13 14 15 16 17 18 19 20 21 22
930
FTUS43 KBIS 240915 AAB
TAFBIS
TAF AMD
KBIS 240915Z 2409/2506 28005KT P6SM SCT150
     FM241200 36006KT P6SM BKN040
     FM241400 34005KT 4SM BR BKN035
     FM241700 33008KT P6SM BKN030
     FM242100 33009KT P6SM BKN070=

USA.gov is the U.S. government's official web portal to all federal, state and local government web resources and services.